sensor_id;sensor_type;location;lat;lon;timestamp;temperature;humidity
12761;DHT22;6444;49.742;6.114;2022-12-22T00:01:07;11.10;99.90
12761;DHT22;6444;49.742;6.114;2022-12-22T00:03:49;11.10;99.90
12761;DHT22;6444;49.742;6.114;2022-12-22T00:06:33;11.20;99.90
12761;DHT22;6444;49.742;6.114;2022-12-22T00:09:18;11.20;99.90
12761;DHT22;6444;49.742;6.114;2022-12-22T00:12:03;11.30;99.90
12761;DHT22;6444;49.742;6.114;2022-12-22T00:14:47;11.60;99.90
12761;DHT22;6444;49.742;6.114;2022-12-22T00:17:31;11.30;99.90
12761;DHT22;6444;49.742;6.114;2022-12-22T00:20:17;11.40;99.90
12761;DHT22;6444;49.742;6.114;2022-12-22T00:23:00;11.30;99.90
12761;DHT22;6444;49.742;6.114;2022-12-22T00:25:44;11.20;99.90
12761;DHT22;6444;49.742;6.114;2022-12-22T00:28:29;11.10;99.90
12761;DHT22;6444;49.742;6.114;2022-12-22T00:31:13;11.30;99.90
12761;DHT22;6444;49.742;6.114;2022-12-22T00:33:58;11.40;99.90
12761;DHT22;6444;49.742;6.114;2022-12-22T00:36:43;11.30;99.90
12761;DHT22;6444;49.742;6.114;2022-12-22T00:39:27;11.10;99.90
12761;DHT22;6444;49.742;6.114;2022-12-22T00:42:12;11.00;99.90
12761;DHT22;6444;49.742;6.114;2022-12-22T00:44:56;11.00;99.90
12761;DHT22;6444;49.742;6.114;2022-12-22T00:47:41;10.80;99.90
12761;DHT22;6444;49.742;6.114;2022-12-22T00:50:26;10.60;99.90
12761;DHT22;6444;49.742;6.114;2022-12-22T00:53:09;10.60;99.90
12761;DHT22;6444;49.742;6.114;2022-12-22T00:55:54;10.70;99.90
12761;DHT22;6444;49.742;6.114;2022-12-22T00:58:38;10.60;99.90
12761;DHT22;6444;49.742;6.114;2022-12-22T01:01:23;10.70;99.90
12761;DHT22;6444;49.742;6.114;2022-12-22T01:04:10;10.70;99.90
12761;DHT22;6444;49.742;6.114;2022-12-22T01:06:55;10.70;99.90
12761;DHT22;6444;49.742;6.114;2022-12-22T01:09:40;10.60;99.90
12761;DHT22;6444;49.742;6.114;2022-12-22T01:12:24;10.80;99.90
12761;DHT22;6444;49.742;6.114;2022-12-22T01:15:12;10.80;99.90
12761;DHT22;6444;49.742;6.114;2022-12-22T01:17:55;11.00;99.90
12761;DHT22;6444;49.742;6.114;2022-12-22T01:20:40;11.00;99.90
12761;DHT22;6444;49.742;6.114;2022-12-22T01:23:24;11.10;99.90
12761;DHT22;6444;49.742;6.114;2022-12-22T01:26:09;11.00;99.90
12761;DHT22;6444;49.742;6.114;2022-12-22T01:28:53;11.00;99.90
12761;DHT22;6444;49.742;6.114;2022-12-22T01:31:37;11.00;99.90
12761;DHT22;6444;49.742;6.114;2022-12-22T01:34:22;10.80;99.90
12761;DHT22;6444;49.742;6.114;2022-12-22T01:37:06;11.10;99.90
12761;DHT22;6444;49.742;6.114;2022-12-22T01:39:51;11.20;99.90
12761;DHT22;6444;49.742;6.114;2022-12-22T01:42:35;11.00;99.90
12761;DHT22;6444;49.742;6.114;2022-12-22T01:48:06;11.40;99.90
12761;DHT22;6444;49.742;6.114;2022-12-22T01:50:49;11.30;99.90
12761;DHT22;6444;49.742;6.114;2022-12-22T01:53:33;11.30;99.90
12761;DHT22;6444;49.742;6.114;2022-12-22T01:56:18;11.60;99.90
12761;DHT22;6444;49.742;6.114;2022-12-22T01:59:02;11.30;99.90
12761;DHT22;6444;49.742;6.114;2022-12-22T02:01:47;11.10;99.90
12761;DHT22;6444;49.742;6.114;2022-12-22T02:04:33;11.00;99.90
12761;DHT22;6444;49.742;6.114;2022-12-22T02:07:20;10.90;99.90
12761;DHT22;6444;49.742;6.114;2022-12-22T02:10:28;11.00;99.90
12761;DHT22;6444;49.742;6.114;2022-12-22T02:13:16;11.00;99.90
12761;DHT22;6444;49.742;6.114;2022-12-22T02:18:53;11.20;99.90
12761;DHT22;6444;49.742;6.114;2022-12-22T02:21:48;11.30;99.90
12761;DHT22;6444;49.742;6.114;2022-12-22T02:24:34;11.20;99.90
12761;DHT22;6444;49.742;6.114;2022-12-22T02:27:16;11.20;99.90
12761;DHT22;6444;49.742;6.114;2022-12-22T02:30:01;11.10;99.90
12761;DHT22;6444;49.742;6.114;2022-12-22T02:32:45;11.30;99.90
12761;DHT22;6444;49.742;6.114;2022-12-22T02:35:44;11.60;99.90
12761;DHT22;6444;49.742;6.114;2022-12-22T02:38:33;11.70;99.90
12761;DHT22;6444;49.742;6.114;2022-12-22T02:44:46;11.20;99.90
12761;DHT22;6444;49.742;6.114;2022-12-22T02:47:44;11.30;99.90
12761;DHT22;6444;49.742;6.114;2022-12-22T02:50:38;11.30;99.90
12761;DHT22;6444;49.742;6.114;2022-12-22T02:53:21;11.30;99.90
12761;DHT22;6444;49.742;6.114;2022-12-22T02:56:05;11.20;99.90
12761;DHT22;6444;49.742;6.114;2022-12-22T02:58:49;11.30;99.90
12761;DHT22;6444;49.742;6.114;2022-12-22T03:01:34;11.00;99.90
12761;DHT22;6444;49.742;6.114;2022-12-22T03:04:18;11.00;99.90
12761;DHT22;6444;49.742;6.114;2022-12-22T03:07:02;11.10;99.90
12761;DHT22;6444;49.742;6.114;2022-12-22T03:09:47;11.30;99.90
12761;DHT22;6444;49.742;6.114;2022-12-22T03:12:32;11.60;99.90
12761;DHT22;6444;49.742;6.114;2022-12-22T03:15:16;11.70;99.90
12761;DHT22;6444;49.742;6.114;2022-12-22T03:18:07;11.40;99.90
12761;DHT22;6444;49.742;6.114;2022-12-22T03:20:51;11.40;99.90
12761;DHT22;6444;49.742;6.114;2022-12-22T03:23:35;11.30;99.90
12761;DHT22;6444;49.742;6.114;2022-12-22T03:26:19;11.30;99.90
12761;DHT22;6444;49.742;6.114;2022-12-22T03:28:46;11.30;99.90
12761;DHT22;6444;49.742;6.114;2022-12-22T03:31:13;11.10;99.90
12761;DHT22;6444;49.742;6.114;2022-12-22T03:33:39;11.30;99.90
12761;DHT22;6444;49.742;6.114;2022-12-22T03:36:06;11.50;99.90
12761;DHT22;6444;49.742;6.114;2022-12-22T03:38:33;11.30;99.90
12761;DHT22;6444;49.742;6.114;2022-12-22T03:40:59;11.40;99.90
12761;DHT22;6444;49.742;6.114;2022-12-22T03:43:26;11.50;99.90
12761;DHT22;6444;49.742;6.114;2022-12-22T03:46:14;11.40;99.90
12761;DHT22;6444;49.742;6.114;2022-12-22T03:48:43;11.20;99.90
12761;DHT22;6444;49.742;6.114;2022-12-22T03:51:09;11.10;99.90
12761;DHT22;6444;49.742;6.114;2022-12-22T03:53:36;11.10;99.90
12761;DHT22;6444;49.742;6.114;2022-12-22T03:56:02;11.10;99.90
12761;DHT22;6444;49.742;6.114;2022-12-22T03:58:29;11.20;99.90
12761;DHT22;6444;49.742;6.114;2022-12-22T04:01:05;11.30;99.90
12761;DHT22;6444;49.742;6.114;2022-12-22T04:03:31;11.20;99.90
12761;DHT22;6444;49.742;6.114;2022-12-22T04:05:58;11.20;99.90
12761;DHT22;6444;49.742;6.114;2022-12-22T04:08:24;11.30;99.90
12761;DHT22;6444;49.742;6.114;2022-12-22T04:10:51;11.30;99.90
12761;DHT22;6444;49.742;6.114;2022-12-22T04:13:35;11.30;99.90
12761;DHT22;6444;49.742;6.114;2022-12-22T04:16:02;11.00;99.90
12761;DHT22;6444;49.742;6.114;2022-12-22T04:18:29;11.00;99.90
12761;DHT22;6444;49.742;6.114;2022-12-22T04:20:55;11.00;99.90
12761;DHT22;6444;49.742;6.114;2022-12-22T04:23:22;11.00;99.90
12761;DHT22;6444;49.742;6.114;2022-12-22T04:25:49;11.00;99.90
12761;DHT22;6444;49.742;6.114;2022-12-22T04:28:15;11.10;99.90
12761;DHT22;6444;49.742;6.114;2022-12-22T04:30:42;11.20;99.90
12761;DHT22;6444;49.742;6.114;2022-12-22T04:33:08;11.20;99.90
12761;DHT22;6444;49.742;6.114;2022-12-22T04:35:35;11.10;99.90
12761;DHT22;6444;49.742;6.114;2022-12-22T04:38:02;11.00;99.90
12761;DHT22;6444;49.742;6.114;2022-12-22T04:40:28;11.20;99.90
12761;DHT22;6444;49.742;6.114;2022-12-22T04:42:55;11.00;99.90
12761;DHT22;6444;49.742;6.114;2022-12-22T04:45:22;11.00;99.90
12761;DHT22;6444;49.742;6.114;2022-12-22T04:47:48;10.90;99.90
12761;DHT22;6444;49.742;6.114;2022-12-22T04:50:15;10.90;99.90
12761;DHT22;6444;49.742;6.114;2022-12-22T04:52:41;10.90;99.90
12761;DHT22;6444;49.742;6.114;2022-12-22T04:55:08;11.00;99.90
12761;DHT22;6444;49.742;6.114;2022-12-22T04:57:35;11.10;99.90
12761;DHT22;6444;49.742;6.114;2022-12-22T05:00:02;11.00;99.90
12761;DHT22;6444;49.742;6.114;2022-12-22T05:02:28;11.00;99.90
12761;DHT22;6444;49.742;6.114;2022-12-22T05:04:55;10.90;99.90
12761;DHT22;6444;49.742;6.114;2022-12-22T05:07:21;10.90;99.90
12761;DHT22;6444;49.742;6.114;2022-12-22T05:09:48;11.00;99.90
12761;DHT22;6444;49.742;6.114;2022-12-22T05:12:14;11.10;99.90
12761;DHT22;6444;49.742;6.114;2022-12-22T05:14:59;11.00;99.90
12761;DHT22;6444;49.742;6.114;2022-12-22T05:17:26;11.00;99.90
12761;DHT22;6444;49.742;6.114;2022-12-22T05:19:52;11.00;99.90
12761;DHT22;6444;49.742;6.114;2022-12-22T05:22:19;11.00;99.90
12761;DHT22;6444;49.742;6.114;2022-12-22T05:24:46;11.00;99.90
12761;DHT22;6444;49.742;6.114;2022-12-22T05:27:12;11.10;99.90
12761;DHT22;6444;49.742;6.114;2022-12-22T05:29:39;10.90;99.90
12761;DHT22;6444;49.742;6.114;2022-12-22T05:32:06;10.90;99.90
12761;DHT22;6444;49.742;6.114;2022-12-22T05:34:32;10.90;99.90
12761;DHT22;6444;49.742;6.114;2022-12-22T05:36:59;11.00;99.90
12761;DHT22;6444;49.742;6.114;2022-12-22T05:39:25;11.00;99.90
12761;DHT22;6444;49.742;6.114;2022-12-22T05:41:52;11.00;99.90
12761;DHT22;6444;49.742;6.114;2022-12-22T05:44:19;10.80;99.90
12761;DHT22;6444;49.742;6.114;2022-12-22T05:46:45;10.80;99.90
12761;DHT22;6444;49.742;6.114;2022-12-22T05:49:12;10.80;99.90
12761;DHT22;6444;49.742;6.114;2022-12-22T05:51:39;10.90;99.90
12761;DHT22;6444;49.742;6.114;2022-12-22T05:54:05;10.90;99.90
12761;DHT22;6444;49.742;6.114;2022-12-22T05:56:32;10.80;99.90
12761;DHT22;6444;49.742;6.114;2022-12-22T05:58:59;10.80;99.90
12761;DHT22;6444;49.742;6.114;2022-12-22T06:01:25;10.80;99.90
12761;DHT22;6444;49.742;6.114;2022-12-22T06:03:52;10.80;99.90
12761;DHT22;6444;49.742;6.114;2022-12-22T06:06:19;10.80;99.90
12761;DHT22;6444;49.742;6.114;2022-12-22T06:08:45;10.90;99.90
12761;DHT22;6444;49.742;6.114;2022-12-22T06:11:12;10.80;99.90
12761;DHT22;6444;49.742;6.114;2022-12-22T06:13:38;10.70;99.90
12761;DHT22;6444;49.742;6.114;2022-12-22T06:16:05;10.60;99.90
12761;DHT22;6444;49.742;6.114;2022-12-22T06:18:32;10.70;99.90
12761;DHT22;6444;49.742;6.114;2022-12-22T06:20:58;10.80;99.90
12761;DHT22;6444;49.742;6.114;2022-12-22T06:23:25;10.80;99.90
12761;DHT22;6444;49.742;6.114;2022-12-22T06:25:55;10.80;99.90
12761;DHT22;6444;49.742;6.114;2022-12-22T06:28:21;10.70;99.90
12761;DHT22;6444;49.742;6.114;2022-12-22T06:30:48;10.80;99.90
12761;DHT22;6444;49.742;6.114;2022-12-22T06:33:14;10.80;99.90
12761;DHT22;6444;49.742;6.114;2022-12-22T06:35:41;10.90;99.90
12761;DHT22;6444;49.742;6.114;2022-12-22T06:38:08;10.80;99.90
12761;DHT22;6444;49.742;6.114;2022-12-22T06:40:34;10.80;99.90
12761;DHT22;6444;49.742;6.114;2022-12-22T06:43:01;10.80;99.90
12761;DHT22;6444;49.742;6.114;2022-12-22T06:45:34;10.80;99.90
12761;DHT22;6444;49.742;6.114;2022-12-22T06:48:00;10.70;99.90
12761;DHT22;6444;49.742;6.114;2022-12-22T06:50:26;10.60;99.90
12761;DHT22;6444;49.742;6.114;2022-12-22T06:52:53;10.70;99.90
12761;DHT22;6444;49.742;6.114;2022-12-22T06:55:20;10.60;99.90
12761;DHT22;6444;49.742;6.114;2022-12-22T06:57:46;10.60;99.90
12761;DHT22;6444;49.742;6.114;2022-12-22T07:00:13;10.60;99.90
12761;DHT22;6444;49.742;6.114;2022-12-22T07:02:39;10.60;99.90
12761;DHT22;6444;49.742;6.114;2022-12-22T07:05:06;10.60;99.90
12761;DHT22;6444;49.742;6.114;2022-12-22T07:07:33;10.60;99.90
12761;DHT22;6444;49.742;6.114;2022-12-22T07:09:59;10.60;99.90
12761;DHT22;6444;49.742;6.114;2022-12-22T07:12:26;10.60;99.90
12761;DHT22;6444;49.742;6.114;2022-12-22T07:14:53;10.50;99.90
12761;DHT22;6444;49.742;6.114;2022-12-22T07:17:19;10.80;99.90
12761;DHT22;6444;49.742;6.114;2022-12-22T07:19:46;11.00;99.90
12761;DHT22;6444;49.742;6.114;2022-12-22T07:22:13;10.90;99.90
12761;DHT22;6444;49.742;6.114;2022-12-22T07:24:39;10.70;99.90
12761;DHT22;6444;49.742;6.114;2022-12-22T07:27:06;10.80;99.90
12761;DHT22;6444;49.742;6.114;2022-12-22T07:29:32;10.80;99.90
12761;DHT22;6444;49.742;6.114;2022-12-22T07:31:59;10.70;99.90
12761;DHT22;6444;49.742;6.114;2022-12-22T07:34:26;10.70;99.90
12761;DHT22;6444;49.742;6.114;2022-12-22T07:36:52;10.70;99.90
12761;DHT22;6444;49.742;6.114;2022-12-22T07:39:19;10.70;99.90
12761;DHT22;6444;49.742;6.114;2022-12-22T07:41:46;10.70;99.90
12761;DHT22;6444;49.742;6.114;2022-12-22T07:44:30;10.70;99.90
12761;DHT22;6444;49.742;6.114;2022-12-22T07:46:57;10.80;99.90
12761;DHT22;6444;49.742;6.114;2022-12-22T07:49:23;10.80;99.90
12761;DHT22;6444;49.742;6.114;2022-12-22T07:52:08;10.80;99.90
12761;DHT22;6444;49.742;6.114;2022-12-22T07:54:35;10.80;99.90
12761;DHT22;6444;49.742;6.114;2022-12-22T07:57:01;10.70;99.90
12761;DHT22;6444;49.742;6.114;2022-12-22T07:59:28;10.60;99.90
12761;DHT22;6444;49.742;6.114;2022-12-22T08:01:54;10.60;99.90
12761;DHT22;6444;49.742;6.114;2022-12-22T08:04:21;10.60;99.90
12761;DHT22;6444;49.742;6.114;2022-12-22T08:06:48;10.60;99.90
12761;DHT22;6444;49.742;6.114;2022-12-22T08:09:15;10.60;99.90
12761;DHT22;6444;49.742;6.114;2022-12-22T08:11:41;10.60;99.90
12761;DHT22;6444;49.742;6.114;2022-12-22T08:14:08;10.70;99.90
12761;DHT22;6444;49.742;6.114;2022-12-22T08:16:34;10.70;99.90
12761;DHT22;6444;49.742;6.114;2022-12-22T08:19:01;10.60;99.90
12761;DHT22;6444;49.742;6.114;2022-12-22T08:21:27;10.60;99.90
12761;DHT22;6444;49.742;6.114;2022-12-22T08:23:54;10.60;99.90
12761;DHT22;6444;49.742;6.114;2022-12-22T08:26:27;10.60;99.90
12761;DHT22;6444;49.742;6.114;2022-12-22T08:29:04;10.60;99.90
12761;DHT22;6444;49.742;6.114;2022-12-22T08:31:20;10.60;99.90
12761;DHT22;6444;49.742;6.114;2022-12-22T08:33:46;10.80;99.90
12761;DHT22;6444;49.742;6.114;2022-12-22T08:36:13;10.90;99.90
12761;DHT22;6444;49.742;6.114;2022-12-22T08:38:39;11.20;99.90
12761;DHT22;6444;49.742;6.114;2022-12-22T08:41:07;11.40;99.90
12761;DHT22;6444;49.742;6.114;2022-12-22T08:43:33;11.20;99.90
12761;DHT22;6444;49.742;6.114;2022-12-22T08:45:59;11.20;99.90
12761;DHT22;6444;49.742;6.114;2022-12-22T08:48:26;11.30;99.90
12761;DHT22;6444;49.742;6.114;2022-12-22T08:50:53;11.00;99.90
12761;DHT22;6444;49.742;6.114;2022-12-22T08:53:19;10.60;99.90
12761;DHT22;6444;49.742;6.114;2022-12-22T08:55:52;10.90;99.90
12761;DHT22;6444;49.742;6.114;2022-12-22T08:58:18;11.10;99.90
12761;DHT22;6444;49.742;6.114;2022-12-22T09:00:45;11.00;99.90
12761;DHT22;6444;49.742;6.114;2022-12-22T09:03:11;11.00;99.90
12761;DHT22;6444;49.742;6.114;2022-12-22T09:05:38;11.00;99.90
12761;DHT22;6444;49.742;6.114;2022-12-22T09:08:05;10.90;99.90
12761;DHT22;6444;49.742;6.114;2022-12-22T09:10:31;10.90;99.90
12761;DHT22;6444;49.742;6.114;2022-12-22T09:12:58;11.30;99.90
12761;DHT22;6444;49.742;6.114;2022-12-22T09:15:25;10.90;99.90
12761;DHT22;6444;49.742;6.114;2022-12-22T09:17:51;10.80;99.90
12761;DHT22;6444;49.742;6.114;2022-12-22T09:20:18;10.60;99.90
12761;DHT22;6444;49.742;6.114;2022-12-22T09:22:44;10.50;99.90
12761;DHT22;6444;49.742;6.114;2022-12-22T09:25:11;10.60;99.90
12761;DHT22;6444;49.742;6.114;2022-12-22T09:27:38;10.60;99.90
12761;DHT22;6444;49.742;6.114;2022-12-22T09:30:05;10.50;99.90
12761;DHT22;6444;49.742;6.114;2022-12-22T09:32:31;10.70;99.90
12761;DHT22;6444;49.742;6.114;2022-12-22T09:34:58;10.80;99.90
12761;DHT22;6444;49.742;6.114;2022-12-22T09:37:24;10.40;99.90
12761;DHT22;6444;49.742;6.114;2022-12-22T09:39:51;10.20;99.90
12761;DHT22;6444;49.742;6.114;2022-12-22T09:42:18;10.50;99.90
12761;DHT22;6444;49.742;6.114;2022-12-22T09:44:45;10.50;99.90
12761;DHT22;6444;49.742;6.114;2022-12-22T09:47:15;10.40;99.90
12761;DHT22;6444;49.742;6.114;2022-12-22T09:49:40;10.30;99.90
12761;DHT22;6444;49.742;6.114;2022-12-22T09:52:17;10.40;99.90
12761;DHT22;6444;49.742;6.114;2022-12-22T09:54:33;10.40;99.90
12761;DHT22;6444;49.742;6.114;2022-12-22T09:57:00;10.30;99.90
12761;DHT22;6444;49.742;6.114;2022-12-22T09:59:27;10.30;99.90
12761;DHT22;6444;49.742;6.114;2022-12-22T10:01:55;10.30;99.90
12761;DHT22;6444;49.742;6.114;2022-12-22T10:09:36;10.50;99.90
12761;DHT22;6444;49.742;6.114;2022-12-22T10:12:04;10.20;99.90
12761;DHT22;6444;49.742;6.114;2022-12-22T10:14:40;10.10;99.90
12761;DHT22;6444;49.742;6.114;2022-12-22T10:17:18;9.90;99.90
12761;DHT22;6444;49.742;6.114;2022-12-22T10:19:44;10.20;99.90
12761;DHT22;6444;49.742;6.114;2022-12-22T10:22:29;10.00;99.90
12761;DHT22;6444;49.742;6.114;2022-12-22T10:24:56;9.80;99.90
12761;DHT22;6444;49.742;6.114;2022-12-22T10:27:23;9.90;99.90
12761;DHT22;6444;49.742;6.114;2022-12-22T10:29:48;10.00;99.90
12761;DHT22;6444;49.742;6.114;2022-12-22T10:32:16;10.00;99.90
12761;DHT22;6444;49.742;6.114;2022-12-22T10:35:01;9.90;99.90
12761;DHT22;6444;49.742;6.114;2022-12-22T10:37:33;9.90;99.90
12761;DHT22;6444;49.742;6.114;2022-12-22T10:40:01;9.80;99.90
12761;DHT22;6444;49.742;6.114;2022-12-22T10:42:25;9.90;99.90
12761;DHT22;6444;49.742;6.114;2022-12-22T10:44:52;10.10;99.90
12761;DHT22;6444;49.742;6.114;2022-12-22T10:47:19;10.00;99.90
12761;DHT22;6444;49.742;6.114;2022-12-22T10:49:45;9.90;99.90
12761;DHT22;6444;49.742;6.114;2022-12-22T10:52:27;10.10;99.90
12761;DHT22;6444;49.742;6.114;2022-12-22T10:55:13;10.10;99.90
12761;DHT22;6444;49.742;6.114;2022-12-22T10:57:29;10.50;99.90
12761;DHT22;6444;49.742;6.114;2022-12-22T11:02:26;10.70;99.90
12761;DHT22;6444;49.742;6.114;2022-12-22T11:04:59;10.30;99.90
12761;DHT22;6444;49.742;6.114;2022-12-22T11:07:29;10.20;99.90
12761;DHT22;6444;49.742;6.114;2022-12-22T11:09:47;10.40;99.90
12761;DHT22;6444;49.742;6.114;2022-12-22T11:15:30;10.80;99.90
12761;DHT22;6444;49.742;6.114;2022-12-22T11:23:38;11.70;99.90
12761;DHT22;6444;49.742;6.114;2022-12-22T11:26:10;11.70;99.90
12761;DHT22;6444;49.742;6.114;2022-12-22T11:31:46;11.40;99.90
12761;DHT22;6444;49.742;6.114;2022-12-22T11:39:53;11.80;99.90
12761;DHT22;6444;49.742;6.114;2022-12-22T11:50:54;12.60;99.90
12761;DHT22;6444;49.742;6.114;2022-12-22T11:53:48;12.00;99.90
12761;DHT22;6444;49.742;6.114;2022-12-22T11:56:36;11.60;99.90
12761;DHT22;6444;49.742;6.114;2022-12-22T12:05:29;11.70;99.90
12761;DHT22;6444;49.742;6.114;2022-12-22T12:07:21;11.70;99.90
12761;DHT22;6444;49.742;6.114;2022-12-22T12:10:12;11.60;99.90
12761;DHT22;6444;49.742;6.114;2022-12-22T12:15:39;12.30;99.90
12761;DHT22;6444;49.742;6.114;2022-12-22T12:20:50;13.10;99.90
12761;DHT22;6444;49.742;6.114;2022-12-22T12:23:37;12.80;99.90
12761;DHT22;6444;49.742;6.114;2022-12-22T12:26:03;12.60;99.90
12761;DHT22;6444;49.742;6.114;2022-12-22T12:28:37;12.40;99.90
12761;DHT22;6444;49.742;6.114;2022-12-22T12:33:41;11.60;99.90
12761;DHT22;6444;49.742;6.114;2022-12-22T12:36:16;11.90;99.90
12761;DHT22;6444;49.742;6.114;2022-12-22T12:39:07;12.30;99.90
12761;DHT22;6444;49.742;6.114;2022-12-22T12:41:32;12.50;99.90
12761;DHT22;6444;49.742;6.114;2022-12-22T12:43:56;13.30;99.90
12761;DHT22;6444;49.742;6.114;2022-12-22T12:52:04;14.80;99.90
12761;DHT22;6444;49.742;6.114;2022-12-22T12:56:58;13.70;99.90
12761;DHT22;6444;49.742;6.114;2022-12-22T13:02:29;13.30;99.90
12761;DHT22;6444;49.742;6.114;2022-12-22T13:21:19;13.20;99.90
12761;DHT22;6444;49.742;6.114;2022-12-22T13:26:21;12.90;99.90
12761;DHT22;6444;49.742;6.114;2022-12-22T13:31:33;13.20;99.90
12761;DHT22;6444;49.742;6.114;2022-12-22T13:36:31;13.40;99.90
12761;DHT22;6444;49.742;6.114;2022-12-22T13:39:00;12.70;99.90
12761;DHT22;6444;49.742;6.114;2022-12-22T13:41:26;12.40;99.90
12761;DHT22;6444;49.742;6.114;2022-12-22T13:43:57;12.00;99.90
12761;DHT22;6444;49.742;6.114;2022-12-22T13:46:22;11.90;99.90
12761;DHT22;6444;49.742;6.114;2022-12-22T13:48:49;12.00;99.90
12761;DHT22;6444;49.742;6.114;2022-12-22T13:53:49;11.80;99.90
12761;DHT22;6444;49.742;6.114;2022-12-22T13:56:33;11.60;99.90
12761;DHT22;6444;49.742;6.114;2022-12-22T13:58:52;11.20;99.90
12761;DHT22;6444;49.742;6.114;2022-12-22T14:01:18;11.10;99.90
12761;DHT22;6444;49.742;6.114;2022-12-22T14:03:45;11.20;99.90
12761;DHT22;6444;49.742;6.114;2022-12-22T14:06:22;11.20;99.90
12761;DHT22;6444;49.742;6.114;2022-12-22T14:08:47;11.40;99.90
12761;DHT22;6444;49.742;6.114;2022-12-22T14:11:13;11.50;99.90
12761;DHT22;6444;49.742;6.114;2022-12-22T14:13:39;11.60;99.90
12761;DHT22;6444;49.742;6.114;2022-12-22T14:16:10;11.30;99.90
12761;DHT22;6444;49.742;6.114;2022-12-22T14:18:33;10.80;99.90
12761;DHT22;6444;49.742;6.114;2022-12-22T14:20:59;11.00;99.90
12761;DHT22;6444;49.742;6.114;2022-12-22T14:23:27;10.70;99.90
12761;DHT22;6444;49.742;6.114;2022-12-22T14:25:53;10.50;99.90
12761;DHT22;6444;49.742;6.114;2022-12-22T14:30:47;10.70;99.90
12761;DHT22;6444;49.742;6.114;2022-12-22T14:33:14;10.80;99.90
12761;DHT22;6444;49.742;6.114;2022-12-22T14:35:39;10.90;99.90
12761;DHT22;6444;49.742;6.114;2022-12-22T14:40:39;11.60;99.90
12761;DHT22;6444;49.742;6.114;2022-12-22T14:43:06;11.90;99.90
12761;DHT22;6444;49.742;6.114;2022-12-22T14:45:31;12.10;99.90
12761;DHT22;6444;49.742;6.114;2022-12-22T14:47:58;12.10;99.90
12761;DHT22;6444;49.742;6.114;2022-12-22T14:50:25;12.40;99.90
12761;DHT22;6444;49.742;6.114;2022-12-22T14:52:55;12.00;99.90
12761;DHT22;6444;49.742;6.114;2022-12-22T14:55:30;11.90;99.90
12761;DHT22;6444;49.742;6.114;2022-12-22T14:58:09;11.90;99.90
12761;DHT22;6444;49.742;6.114;2022-12-22T15:02:57;11.70;99.90
12761;DHT22;6444;49.742;6.114;2022-12-22T15:05:29;11.60;99.90
12761;DHT22;6444;49.742;6.114;2022-12-22T15:07:56;11.50;99.90
12761;DHT22;6444;49.742;6.114;2022-12-22T15:10:21;11.70;99.90
12761;DHT22;6444;49.742;6.114;2022-12-22T15:12:48;11.50;99.90
12761;DHT22;6444;49.742;6.114;2022-12-22T15:15:18;11.50;99.90
12761;DHT22;6444;49.742;6.114;2022-12-22T15:17:45;11.40;99.90
12761;DHT22;6444;49.742;6.114;2022-12-22T15:20:20;11.60;99.90
12761;DHT22;6444;49.742;6.114;2022-12-22T15:22:46;11.70;99.90
12761;DHT22;6444;49.742;6.114;2022-12-22T15:25:17;11.50;99.90
12761;DHT22;6444;49.742;6.114;2022-12-22T15:27:42;11.50;99.90
12761;DHT22;6444;49.742;6.114;2022-12-22T15:30:09;11.30;99.90
12761;DHT22;6444;49.742;6.114;2022-12-22T15:32:35;11.20;99.90
12761;DHT22;6444;49.742;6.114;2022-12-22T15:35:02;11.10;99.90
12761;DHT22;6444;49.742;6.114;2022-12-22T15:37:28;11.00;99.90
12761;DHT22;6444;49.742;6.114;2022-12-22T15:39:55;11.20;99.90
12761;DHT22;6444;49.742;6.114;2022-12-22T15:42:22;11.00;99.90
12761;DHT22;6444;49.742;6.114;2022-12-22T15:44:48;10.80;99.90
12761;DHT22;6444;49.742;6.114;2022-12-22T15:47:15;10.90;99.90
12761;DHT22;6444;49.742;6.114;2022-12-22T15:49:42;10.90;99.90
12761;DHT22;6444;49.742;6.114;2022-12-22T15:52:08;11.00;99.90
12761;DHT22;6444;49.742;6.114;2022-12-22T15:54:35;11.40;99.90
12761;DHT22;6444;49.742;6.114;2022-12-22T15:57:01;11.60;99.90
12761;DHT22;6444;49.742;6.114;2022-12-22T15:59:28;11.60;99.90
12761;DHT22;6444;49.742;6.114;2022-12-22T16:01:55;11.50;99.90
12761;DHT22;6444;49.742;6.114;2022-12-22T16:04:24;11.60;99.90
12761;DHT22;6444;49.742;6.114;2022-12-22T16:06:51;11.40;99.90
12761;DHT22;6444;49.742;6.114;2022-12-22T16:09:21;11.40;99.90
12761;DHT22;6444;49.742;6.114;2022-12-22T16:11:47;11.10;99.90
12761;DHT22;6444;49.742;6.114;2022-12-22T16:14:13;11.00;99.90
12761;DHT22;6444;49.742;6.114;2022-12-22T16:16:40;11.00;99.90
12761;DHT22;6444;49.742;6.114;2022-12-22T16:19:15;11.00;99.90
12761;DHT22;6444;49.742;6.114;2022-12-22T16:21:42;10.90;99.90
12761;DHT22;6444;49.742;6.114;2022-12-22T16:24:12;11.20;99.90
12761;DHT22;6444;49.742;6.114;2022-12-22T16:26:35;11.10;99.90
12761;DHT22;6444;49.742;6.114;2022-12-22T16:29:01;11.10;99.90
12761;DHT22;6444;49.742;6.114;2022-12-22T16:31:28;11.20;99.90
12761;DHT22;6444;49.742;6.114;2022-12-22T16:33:55;11.00;99.90
12761;DHT22;6444;49.742;6.114;2022-12-22T16:36:21;10.80;99.90
12761;DHT22;6444;49.742;6.114;2022-12-22T16:38:48;10.80;99.90
12761;DHT22;6444;49.742;6.114;2022-12-22T16:41:17;10.90;99.90
12761;DHT22;6444;49.742;6.114;2022-12-22T16:43:41;10.90;99.90
12761;DHT22;6444;49.742;6.114;2022-12-22T16:46:11;11.00;99.90
12761;DHT22;6444;49.742;6.114;2022-12-22T16:48:41;11.10;99.90
12761;DHT22;6444;49.742;6.114;2022-12-22T16:51:07;10.90;99.90
12761;DHT22;6444;49.742;6.114;2022-12-22T16:53:34;10.90;99.90
12761;DHT22;6444;49.742;6.114;2022-12-22T16:56:00;10.90;99.90
12761;DHT22;6444;49.742;6.114;2022-12-22T16:58:27;10.90;99.90
12761;DHT22;6444;49.742;6.114;2022-12-22T17:00:53;10.90;99.90
12761;DHT22;6444;49.742;6.114;2022-12-22T17:03:23;11.00;99.90
12761;DHT22;6444;49.742;6.114;2022-12-22T17:05:53;11.20;99.90
12761;DHT22;6444;49.742;6.114;2022-12-22T17:08:26;11.20;99.90
12761;DHT22;6444;49.742;6.114;2022-12-22T17:10:52;11.20;99.90
12761;DHT22;6444;49.742;6.114;2022-12-22T17:13:18;11.10;99.90
12761;DHT22;6444;49.742;6.114;2022-12-22T17:15:45;11.10;99.90
12761;DHT22;6444;49.742;6.114;2022-12-22T17:18:18;11.20;99.90
12761;DHT22;6444;49.742;6.114;2022-12-22T17:20:44;11.60;99.90
12761;DHT22;6444;49.742;6.114;2022-12-22T17:23:22;11.60;99.90
12761;DHT22;6444;49.742;6.114;2022-12-22T17:25:39;11.40;99.90
12761;DHT22;6444;49.742;6.114;2022-12-22T17:28:07;11.40;99.90
12761;DHT22;6444;49.742;6.114;2022-12-22T17:30:32;11.50;99.90
12761;DHT22;6444;49.742;6.114;2022-12-22T17:32:59;11.50;99.90
12761;DHT22;6444;49.742;6.114;2022-12-22T17:35:26;11.40;99.90
12761;DHT22;6444;49.742;6.114;2022-12-22T17:37:52;11.60;99.90
12761;DHT22;6444;49.742;6.114;2022-12-22T17:40:23;11.50;99.90
12761;DHT22;6444;49.742;6.114;2022-12-22T17:42:49;11.50;99.90
12761;DHT22;6444;49.742;6.114;2022-12-22T17:45:15;11.40;99.90
12761;DHT22;6444;49.742;6.114;2022-12-22T17:47:42;11.30;99.90
12761;DHT22;6444;49.742;6.114;2022-12-22T17:50:12;11.40;99.90
12761;DHT22;6444;49.742;6.114;2022-12-22T17:52:38;11.40;99.90
12761;DHT22;6444;49.742;6.114;2022-12-22T17:55:05;11.20;99.90